createdAt,value
2018-04-26T00:02:08.123Z,17.60
2018-04-26T00:04:36.198Z,17.50
2018-04-26T00:07:05.129Z,17.30
2018-04-26T00:09:33.332Z,17.30
2018-04-26T00:12:01.468Z,17.30
2018-04-26T00:14:29.797Z,17.20
2018-04-26T00:16:57.537Z,17.20
2018-04-26T00:19:25.757Z,17.20
2018-04-26T00:21:53.698Z,17.10
2018-04-26T00:24:21.953Z,17.10
2018-04-26T00:26:49.895Z,17.10
2018-04-26T00:29:17.856Z,17.10
2018-04-26T00:31:45.702Z,17.20
2018-04-26T00:34:13.635Z,17.20
2018-04-26T00:36:41.433Z,17.30
2018-04-26T00:39:09.253Z,17.30
2018-04-26T00:41:37.193Z,17.30
2018-04-26T00:44:05.213Z,17.40
2018-04-26T00:46:33.015Z,17.40
2018-04-26T00:49:00.935Z,17.30
2018-04-26T00:51:40.694Z,17.20
2018-04-26T00:54:08.714Z,17.20
2018-04-26T00:56:36.634Z,17.10
2018-04-26T00:59:04.634Z,17.10
2018-04-26T01:01:32.453Z,17.00
2018-04-26T01:04:00.280Z,16.90
2018-04-26T01:06:28.373Z,16.80
2018-04-26T01:08:56.253Z,16.80
2018-04-26T01:11:24.093Z,16.80
2018-04-26T01:13:52.253Z,16.60
2018-04-26T01:16:20.913Z,16.30
2018-04-26T01:18:48.857Z,16.30
2018-04-26T01:21:16.813Z,16.30
2018-04-26T01:23:44.573Z,16.20
2018-04-26T01:26:12.633Z,16.20
2018-04-26T01:28:40.594Z,16.30
2018-04-26T01:31:08.413Z,16.30
2018-04-26T01:33:37.115Z,16.40
2018-04-26T01:36:05.273Z,16.40
2018-04-26T01:38:33.314Z,16.50
2018-04-26T01:41:01.381Z,16.50
2018-04-26T01:43:29.275Z,16.60
2018-04-26T01:45:57.074Z,16.70
2018-04-26T01:48:25.254Z,16.80
2018-04-26T01:50:53.294Z,16.80
2018-04-26T01:53:22.134Z,16.80
2018-04-26T01:55:50.588Z,16.80
2018-04-26T01:58:18.454Z,16.80
2018-04-26T02:00:46.373Z,16.90
2018-04-26T02:03:14.319Z,16.90
2018-04-26T02:05:42.295Z,16.90
2018-04-26T02:08:10.213Z,16.90
2018-04-26T02:10:38.118Z,16.90
2018-04-26T02:13:06.053Z,16.90
2018-04-26T02:15:33.834Z,16.90
2018-04-26T02:18:01.756Z,16.90
2018-04-26T02:20:30.013Z,16.90
2018-04-26T02:22:57.833Z,16.90
2018-04-26T02:25:25.773Z,16.90
2018-04-26T02:27:53.853Z,16.90
2018-04-26T02:30:21.653Z,16.90
2018-04-26T02:32:50.373Z,16.80
2018-04-26T02:35:18.353Z,16.80
2018-04-26T02:37:46.193Z,16.80
2018-04-26T02:40:14.054Z,16.80
2018-04-26T02:42:42.679Z,16.60
2018-04-26T02:45:11.054Z,16.60
2018-04-26T02:47:38.972Z,16.60
2018-04-26T02:50:06.853Z,16.50
2018-04-26T02:52:34.735Z,16.50
2018-04-26T02:55:02.553Z,16.50
2018-04-26T02:57:30.374Z,16.50
2018-04-26T02:59:58.374Z,16.60
2018-04-26T03:02:26.216Z,16.50
2018-04-26T03:04:54.035Z,16.50
2018-04-26T03:07:22.096Z,16.50
2018-04-26T03:09:50.297Z,16.50
2018-04-26T03:12:19.098Z,16.50
2018-04-26T03:14:47.457Z,16.40
2018-04-26T03:17:15.897Z,16.50
2018-04-26T03:19:44.553Z,16.50
2018-04-26T03:22:12.452Z,16.50
2018-04-26T03:24:40.495Z,16.50
2018-04-26T03:27:15.323Z,16.50
2018-04-26T03:29:50.198Z,16.50
2018-04-26T03:32:18.576Z,16.50
2018-04-26T03:34:46.556Z,16.50
2018-04-26T03:37:14.665Z,16.50
2018-04-26T03:39:42.613Z,16.40
2018-04-26T03:42:19.332Z,16.40
2018-04-26T03:44:56.133Z,16.40
2018-04-26T03:47:31.840Z,16.40
2018-04-26T03:50:08.119Z,16.40
2018-04-26T03:52:43.960Z,16.40
2018-04-26T03:55:19.159Z,16.30
2018-04-26T03:57:57.879Z,16.30
2018-04-26T04:00:37.222Z,16.30
2018-04-26T04:03:16.793Z,16.30
2018-04-26T04:08:54.594Z,16.30
2018-04-26T04:11:22.793Z,16.40
2018-04-26T04:13:50.689Z,16.40
2018-04-26T04:16:18.793Z,16.40
2018-04-26T04:18:47.173Z,16.30
2018-04-26T04:21:15.094Z,16.30
2018-04-26T04:23:43.561Z,16.30
2018-04-26T04:26:11.536Z,16.20
2018-04-26T04:28:39.833Z,16.20
2018-04-26T04:31:07.874Z,16.20
2018-04-26T04:33:35.693Z,16.20
2018-04-26T04:36:03.613Z,16.20
2018-04-26T04:38:31.573Z,16.20
2018-04-26T04:40:59.456Z,16.30
2018-04-26T04:43:27.393Z,16.30
2018-04-26T04:45:55.333Z,16.30
2018-04-26T04:48:23.193Z,16.40
2018-04-26T04:50:51.094Z,16.40
2018-04-26T04:53:20.897Z,16.60
2018-04-26T04:55:48.793Z,16.70
2018-04-26T04:58:16.773Z,17.40
2018-04-26T05:00:44.697Z,18.20
2018-04-26T05:03:12.697Z,18.90
2018-04-26T05:05:40.621Z,19.80
2018-04-26T05:08:08.473Z,20.20
2018-04-26T05:10:36.382Z,19.90
2018-04-26T05:13:05.131Z,20.30
2018-04-26T05:15:32.973Z,20.50
2018-04-26T05:18:01.154Z,20.40
2018-04-26T05:20:29.137Z,20.10
2018-04-26T05:22:56.974Z,19.70
2018-04-26T05:25:24.694Z,19.50
2018-04-26T05:27:52.855Z,19.30
2018-04-26T05:30:20.507Z,19.00
2018-04-26T05:32:48.261Z,19.00
2018-04-26T05:35:15.940Z,18.90
2018-04-26T05:37:44.252Z,19.70
2018-04-26T05:40:14.512Z,20.30
2018-04-26T05:42:42.452Z,20.20
2018-04-26T05:45:10.292Z,19.80
2018-04-26T05:47:38.452Z,19.50
2018-04-26T05:50:06.393Z,19.30
2018-04-26T05:52:34.472Z,19.10
2018-04-26T05:55:03.235Z,19.00
2018-04-26T05:57:31.053Z,19.00
2018-04-26T05:59:59.054Z,19.20
2018-04-26T06:02:27.059Z,20.00
2018-04-26T06:04:54.918Z,21.10
2018-04-26T06:07:22.817Z,20.80
2018-04-26T06:09:50.637Z,20.40
2018-04-26T06:12:18.445Z,20.10
2018-04-26T06:17:19.517Z,19.40
2018-04-26T06:19:48.232Z,19.40
2018-04-26T06:22:16.856Z,19.30
2018-04-26T06:24:45.142Z,19.30
2018-04-26T06:27:13.836Z,19.10
2018-04-26T06:29:42.257Z,19.10
2018-04-26T06:32:10.317Z,19.00
2018-04-26T06:34:38.098Z,18.90
2018-04-26T06:37:06.018Z,18.70
2018-04-26T06:39:33.957Z,18.70
2018-04-26T06:42:01.917Z,18.70
2018-04-26T06:44:29.720Z,18.70
2018-04-26T06:46:57.536Z,18.70
2018-04-26T06:49:25.448Z,18.80
2018-04-26T06:51:53.297Z,18.90
2018-04-26T06:54:21.336Z,19.00
2018-04-26T06:56:49.236Z,19.00
2018-04-26T06:59:17.118Z,19.00
2018-04-26T07:01:44.973Z,19.00
2018-04-26T07:04:12.795Z,18.90
2018-04-26T07:06:40.734Z,18.80
2018-04-26T07:09:08.654Z,18.70
2018-04-26T07:11:36.818Z,18.70
2018-04-26T07:14:04.633Z,18.70
2018-04-26T07:16:32.476Z,18.70
2018-04-26T07:19:00.513Z,18.70
2018-04-26T07:21:28.393Z,18.70
2018-04-26T07:23:56.078Z,18.70
2018-04-26T07:26:23.940Z,18.60
2018-04-26T07:28:51.996Z,18.70
2018-04-26T07:31:20.059Z,18.60
2018-04-26T07:33:47.819Z,18.50
2018-04-26T07:36:15.585Z,18.40
2018-04-26T07:38:43.276Z,18.30
2018-04-26T07:41:13.797Z,18.20
2018-04-26T07:43:41.593Z,18.20
2018-04-26T07:46:09.297Z,18.20
2018-04-26T07:48:37.176Z,18.10
2018-04-26T07:51:05.136Z,18.10
2018-04-26T07:53:32.915Z,18.10
2018-04-26T07:56:00.861Z,18.10
2018-04-26T07:58:28.875Z,18.20
2018-04-26T08:00:56.713Z,18.30
2018-04-26T08:03:24.497Z,18.40
2018-04-26T08:05:52.296Z,18.40
2018-04-26T08:08:20.118Z,18.40
2018-04-26T08:10:48.016Z,18.30
2018-04-26T08:13:16.634Z,18.30
2018-04-26T08:15:44.495Z,18.30
2018-04-26T08:18:12.295Z,18.30
2018-04-26T08:20:40.255Z,18.30
2018-04-26T08:23:08.114Z,18.30
2018-04-26T08:25:36.153Z,18.30
2018-04-26T08:28:04.018Z,18.40
2018-04-26T08:30:31.674Z,18.50
2018-04-26T08:32:59.792Z,18.60
2018-04-26T08:35:27.593Z,18.70
2018-04-26T08:37:55.493Z,19.00
2018-04-26T08:40:23.233Z,19.00
2018-04-26T08:42:51.598Z,18.90
2018-04-26T08:45:19.333Z,19.20
2018-04-26T08:47:47.432Z,19.50
2018-04-26T08:50:15.253Z,19.70
2018-04-26T08:52:43.052Z,20.00
2018-04-26T08:55:10.853Z,20.10
2018-04-26T08:57:38.692Z,20.00
2018-04-26T09:00:09.461Z,19.70
2018-04-26T09:02:37.655Z,19.60
2018-04-26T09:05:05.435Z,19.60
2018-04-26T09:07:33.314Z,19.50
2018-04-26T09:10:01.262Z,19.40
2018-04-26T09:12:29.014Z,19.30
2018-04-26T09:14:56.962Z,19.30
2018-04-26T09:17:24.813Z,19.20
2018-04-26T09:19:52.794Z,19.20
2018-04-26T09:22:20.715Z,19.20
2018-04-26T09:24:50.122Z,19.00
2018-04-26T09:27:18.062Z,18.90
2018-04-26T09:29:45.814Z,18.90
2018-04-26T09:32:13.652Z,18.80
2018-04-26T09:34:41.471Z,18.80
2018-04-26T09:37:09.233Z,18.70
2018-04-26T09:39:46.362Z,18.50
2018-04-26T09:42:20.601Z,18.20
2018-04-26T09:44:51.654Z,18.00
2018-04-26T09:47:26.842Z,17.70
2018-04-26T09:50:02.082Z,17.30
2018-04-26T09:52:35.642Z,17.30
2018-04-26T09:55:04.068Z,17.10
2018-04-26T09:57:38.680Z,16.90
2018-04-26T10:00:06.529Z,16.80
2018-04-26T10:02:49.237Z,16.70
2018-04-26T10:05:17.223Z,16.60
2018-04-26T10:07:44.944Z,16.60
2018-04-26T10:10:12.935Z,16.50
2018-04-26T10:12:40.854Z,16.50
2018-04-26T10:15:08.896Z,16.50
2018-04-26T10:17:36.714Z,16.60
2018-04-26T10:20:04.374Z,16.50
2018-04-26T10:22:32.694Z,16.50
2018-04-26T10:25:00.531Z,16.50
2018-04-26T10:27:28.315Z,16.50
2018-04-26T10:29:56.039Z,16.40
2018-04-26T10:32:23.682Z,16.30
2018-04-26T10:34:51.512Z,16.30
2018-04-26T10:37:20.772Z,16.20
2018-04-26T10:39:48.448Z,16.20
2018-04-26T10:42:16.213Z,16.20
2018-04-26T10:44:43.886Z,16.20
2018-04-26T10:47:11.872Z,16.20
2018-04-26T10:49:39.853Z,16.20
2018-04-26T10:52:07.810Z,16.10
2018-04-26T10:54:36.071Z,16.10
2018-04-26T10:57:03.951Z,16.00
2018-04-26T10:59:31.811Z,15.90
2018-04-26T11:01:59.776Z,15.80
2018-04-26T11:04:27.517Z,15.70
2018-04-26T11:06:55.265Z,15.70
2018-04-26T11:09:22.905Z,15.60
2018-04-26T11:11:50.547Z,15.50
2018-04-26T11:14:18.360Z,15.50
2018-04-26T11:16:46.090Z,15.50
2018-04-26T11:19:13.857Z,15.50
2018-04-26T11:21:41.532Z,15.40
2018-04-26T11:24:10.005Z,15.40
2018-04-26T11:26:37.772Z,15.40
2018-04-26T11:29:06.353Z,15.50
2018-04-26T11:31:34.154Z,15.50
2018-04-26T11:34:01.835Z,15.40
2018-04-26T11:36:29.528Z,15.20
2018-04-26T11:38:57.405Z,15.20
2018-04-26T11:41:25.115Z,15.10
2018-04-26T11:43:53.569Z,15.00
2018-04-26T11:46:21.305Z,14.90
2018-04-26T11:48:48.966Z,14.80
2018-04-26T11:51:16.695Z,14.60
2018-04-26T11:53:44.396Z,14.50
2018-04-26T11:56:12.088Z,14.40
2018-04-26T11:58:39.805Z,14.30
2018-04-26T12:01:08.234Z,14.10
2018-04-26T12:03:35.937Z,14.10
2018-04-26T12:06:03.633Z,14.10
2018-04-26T12:08:31.281Z,14.10
2018-04-26T12:10:59.057Z,14.00
2018-04-26T12:13:26.898Z,14.00
2018-04-26T12:15:54.636Z,13.90
2018-04-26T12:18:22.399Z,13.80
2018-04-26T12:20:50.096Z,13.80
2018-04-26T12:23:18.096Z,13.80
2018-04-26T12:25:45.922Z,13.80
2018-04-26T12:28:13.775Z,13.70
2018-04-26T12:30:41.694Z,13.70
2018-04-26T12:33:09.813Z,13.60
2018-04-26T12:35:37.735Z,13.60
2018-04-26T12:38:05.654Z,13.60
2018-04-26T12:40:33.497Z,13.60
2018-04-26T12:43:01.342Z,13.60
2018-04-26T12:45:29.242Z,13.70
2018-04-26T12:47:57.995Z,13.60
2018-04-26T12:50:26.038Z,13.60
2018-04-26T12:52:53.934Z,13.60
2018-04-26T12:55:21.813Z,13.60
2018-04-26T12:57:49.693Z,13.50
2018-04-26T13:00:17.367Z,13.60
2018-04-26T13:02:45.376Z,13.50
2018-04-26T13:05:13.134Z,13.50
2018-04-26T13:07:40.933Z,13.40
2018-04-26T13:10:08.900Z,13.40
2018-04-26T13:12:36.856Z,13.40
2018-04-26T13:15:04.489Z,13.40
2018-04-26T13:17:33.225Z,13.30
2018-04-26T13:20:01.052Z,13.30
2018-04-26T13:22:29.076Z,13.30
2018-04-26T13:24:56.895Z,13.20
2018-04-26T13:27:25.816Z,13.20
2018-04-26T13:29:53.721Z,13.20
2018-04-26T13:32:21.432Z,13.10
2018-04-26T13:34:49.632Z,13.10
2018-04-26T13:37:17.552Z,13.00
2018-04-26T13:39:45.575Z,13.00
2018-04-26T13:42:13.413Z,13.00
2018-04-26T13:44:41.332Z,12.90
2018-04-26T13:47:09.331Z,12.80
2018-04-26T13:49:37.357Z,12.70
2018-04-26T13:52:05.529Z,12.60
2018-04-26T13:54:33.552Z,12.40
2018-04-26T13:57:02.073Z,12.20
2018-04-26T13:59:30.053Z,12.20
2018-04-26T14:01:58.933Z,12.00
2018-04-26T14:04:26.893Z,12.10
2018-04-26T14:06:54.774Z,12.10
2018-04-26T14:09:22.621Z,12.10
2018-04-26T14:11:50.533Z,12.00
2018-04-26T14:14:19.134Z,12.20
2018-04-26T14:16:47.074Z,12.10
2018-04-26T14:19:14.972Z,12.20
2018-04-26T14:21:43.133Z,12.30
2018-04-26T14:24:11.016Z,12.30
2018-04-26T14:26:39.277Z,12.30
2018-04-26T14:29:07.094Z,12.20
2018-04-26T14:31:35.055Z,12.10
2018-04-26T14:34:03.093Z,12.10
2018-04-26T14:36:30.732Z,12.00
2018-04-26T14:38:58.705Z,11.90
2018-04-26T14:41:26.934Z,11.90
2018-04-26T14:43:55.517Z,11.80
2018-04-26T14:46:23.676Z,11.80
2018-04-26T14:48:52.414Z,11.50
2018-04-26T14:51:20.278Z,11.50
2018-04-26T14:53:48.094Z,11.40
2018-04-26T14:56:15.813Z,11.40
2018-04-26T14:58:43.633Z,11.20
2018-04-26T15:01:11.515Z,11.00
2018-04-26T15:03:39.250Z,10.80
2018-04-26T15:06:07.102Z,10.70
2018-04-26T15:08:34.913Z,10.60
2018-04-26T15:11:02.654Z,10.60
2018-04-26T15:13:30.621Z,10.50
2018-04-26T15:15:58.813Z,10.40
2018-04-26T15:18:26.774Z,10.30
2018-04-26T15:20:54.634Z,10.30
2018-04-26T15:23:23.878Z,10.20
2018-04-26T15:25:51.838Z,10.20
2018-04-26T15:28:19.997Z,10.20
2018-04-26T15:30:47.958Z,10.20
2018-04-26T15:33:15.938Z,10.10
2018-04-26T15:35:43.897Z,10.10
2018-04-26T15:38:11.717Z,10.10
2018-04-26T15:40:39.698Z,10.00
2018-04-26T15:43:07.458Z,10.00
2018-04-26T15:45:35.300Z,9.90
2018-04-26T15:48:03.399Z,9.80
2018-04-26T15:53:44.917Z,9.70
2018-04-26T15:59:30.418Z,9.80
2018-04-26T16:02:18.813Z,9.70
2018-04-26T16:04:58.452Z,9.70
2018-04-26T16:07:54.332Z,9.70
2018-04-26T16:13:56.494Z,9.70
2018-04-26T16:16:41.822Z,9.70
2018-04-26T16:19:26.931Z,9.70
2018-04-26T16:22:12.372Z,9.60
2018-04-26T16:24:53.819Z,9.70
2018-04-26T16:27:39.133Z,9.70
2018-04-26T16:30:18.774Z,9.70
2018-04-26T16:33:04.137Z,9.80
2018-04-26T16:35:43.653Z,9.70
2018-04-26T16:38:23.294Z,9.60
2018-04-26T16:40:51.061Z,9.60
2018-04-26T16:43:18.834Z,9.60
2018-04-26T16:45:46.695Z,9.60
2018-04-26T16:48:14.550Z,9.60
2018-04-26T16:50:42.573Z,9.60
2018-04-26T16:53:10.432Z,9.60
2018-04-26T16:55:38.313Z,9.60
2018-04-26T16:58:06.217Z,9.60
2018-04-26T17:00:34.095Z,9.60
2018-04-26T17:03:01.887Z,9.70
2018-04-26T17:05:30.133Z,9.70
2018-04-26T17:07:58.254Z,9.70
2018-04-26T17:10:26.136Z,9.70
2018-04-26T17:12:54.014Z,9.70
2018-04-26T17:15:22.589Z,9.70
2018-04-26T17:17:50.553Z,9.70
2018-04-26T17:20:18.426Z,9.80
2018-04-26T17:22:46.262Z,9.80
2018-04-26T17:25:13.960Z,9.80
2018-04-26T17:27:41.981Z,9.70
2018-04-26T17:30:10.161Z,9.70
2018-04-26T17:32:38.359Z,9.60
2018-04-26T17:35:06.192Z,9.60
2018-04-26T17:37:34.015Z,9.60
2018-04-26T17:40:01.846Z,9.70
2018-04-26T17:42:29.633Z,9.60
2018-04-26T17:44:57.552Z,9.60
2018-04-26T17:47:25.411Z,9.50
2018-04-26T17:49:53.331Z,9.40
2018-04-26T17:52:21.092Z,9.40
2018-04-26T17:54:49.075Z,9.40
2018-04-26T17:57:16.857Z,9.40
2018-04-26T17:59:44.719Z,9.40
2018-04-26T18:02:12.497Z,9.40
2018-04-26T18:04:40.276Z,9.40
2018-04-26T18:07:08.174Z,9.50
2018-04-26T18:09:35.991Z,9.50
2018-04-26T18:12:03.875Z,9.50
2018-04-26T18:14:31.755Z,9.50
2018-04-26T18:16:59.495Z,9.40
2018-04-26T18:19:27.497Z,9.40
2018-04-26T18:21:56.032Z,9.40
2018-04-26T18:24:24.492Z,9.40
2018-04-26T18:26:52.791Z,9.40
2018-04-26T18:29:20.671Z,9.40
2018-04-26T18:31:48.573Z,9.30
2018-04-26T18:34:16.964Z,9.30
2018-04-26T18:36:44.934Z,9.30
2018-04-26T18:39:12.815Z,9.30
2018-04-26T18:41:40.655Z,9.30
2018-04-26T18:44:08.513Z,9.30
2018-04-26T18:46:36.245Z,9.20
2018-04-26T18:49:04.080Z,9.20
2018-04-26T18:51:31.760Z,9.20
2018-04-26T18:53:59.560Z,9.20
2018-04-26T18:56:27.514Z,9.20
2018-04-26T18:58:55.255Z,9.20
2018-04-26T19:03:57.034Z,9.20
2018-04-26T19:06:24.914Z,9.20
2018-04-26T19:08:52.778Z,9.20
2018-04-26T19:11:20.537Z,9.30
2018-04-26T19:13:48.495Z,9.30
2018-04-26T19:16:16.266Z,9.30
2018-04-26T19:18:43.998Z,9.30
2018-04-26T19:21:12.478Z,9.30
2018-04-26T19:23:40.444Z,9.40
2018-04-26T19:26:08.279Z,9.40
2018-04-26T19:28:37.985Z,9.20
2018-04-26T19:31:05.934Z,9.10
2018-04-26T19:33:36.135Z,8.90
2018-04-26T19:36:03.936Z,8.90
2018-04-26T19:38:31.844Z,8.90
2018-04-26T19:40:59.779Z,8.80
2018-04-26T19:43:27.499Z,8.80
2018-04-26T19:45:55.356Z,8.70
2018-04-26T19:48:24.156Z,8.80
2018-04-26T19:50:52.033Z,8.70
2018-04-26T19:53:19.936Z,8.60
2018-04-26T19:55:48.053Z,8.60
2018-04-26T19:58:15.899Z,8.60
2018-04-26T20:00:43.572Z,8.50
2018-04-26T20:03:13.281Z,8.50
2018-04-26T20:05:40.989Z,8.50
2018-04-26T20:08:08.711Z,8.60
2018-04-26T20:10:36.717Z,8.60
2018-04-26T20:13:04.545Z,8.70
2018-04-26T20:15:32.401Z,8.70
2018-04-26T20:18:00.973Z,8.80
2018-04-26T20:20:28.875Z,8.80
2018-04-26T20:25:29.793Z,8.90
2018-04-26T20:27:57.594Z,8.90
2018-04-26T20:30:25.378Z,8.90
2018-04-26T20:32:53.594Z,9.00
2018-04-26T20:35:21.458Z,9.00
2018-04-26T20:37:49.537Z,9.00
2018-04-26T20:40:17.816Z,9.00
2018-04-26T20:42:45.857Z,9.00
2018-04-26T20:45:14.148Z,9.10
2018-04-26T20:47:42.101Z,9.10
2018-04-26T20:50:10.778Z,9.10
2018-04-26T20:52:38.857Z,9.10
2018-04-26T20:55:07.098Z,9.10
2018-04-26T20:57:35.119Z,9.10
2018-04-26T21:00:03.117Z,9.00
2018-04-26T21:02:31.255Z,8.90
2018-04-26T21:04:59.196Z,8.90
2018-04-26T21:07:27.494Z,8.80
2018-04-26T21:09:55.416Z,8.70
2018-04-26T21:12:23.374Z,8.70
2018-04-26T21:14:52.101Z,8.80
2018-04-26T21:17:20.375Z,8.80
2018-04-26T21:19:49.974Z,8.90
2018-04-26T21:22:17.815Z,9.00
2018-04-26T21:24:46.130Z,9.00
2018-04-26T21:27:13.855Z,9.00
2018-04-26T21:29:41.894Z,9.10
2018-04-26T21:32:11.395Z,9.10
2018-04-26T21:34:39.854Z,9.10
2018-04-26T21:37:07.674Z,9.10
2018-04-26T21:39:35.489Z,9.10
2018-04-26T21:42:04.414Z,9.20
2018-04-26T21:44:32.315Z,9.10
2018-04-26T21:47:00.256Z,9.20
2018-04-26T21:49:27.476Z,9.20
2018-04-26T21:52:00.889Z,9.20
2018-04-26T21:54:34.405Z,9.30
2018-04-26T21:57:07.855Z,9.30
2018-04-26T21:59:41.273Z,9.40
2018-04-26T22:02:14.995Z,9.40
2018-04-26T22:04:48.835Z,9.40
2018-04-26T22:07:16.692Z,9.40
2018-04-26T22:09:44.655Z,9.40
2018-04-26T22:12:12.535Z,9.30
2018-04-26T22:14:40.964Z,9.40
2018-04-26T22:17:08.898Z,9.40
2018-04-26T22:19:36.875Z,9.30
2018-04-26T22:22:04.815Z,9.40
2018-04-26T22:24:32.737Z,9.40
2018-04-26T22:27:00.797Z,9.30
2018-04-26T22:29:28.716Z,9.30
2018-04-26T22:31:56.895Z,9.30
2018-04-26T22:34:25.617Z,9.30
2018-04-26T22:36:53.601Z,9.30
2018-04-26T22:39:21.795Z,9.20
2018-04-26T22:41:49.778Z,9.10
2018-04-26T22:44:22.271Z,9.10
2018-04-26T22:46:56.760Z,9.10
2018-04-26T22:49:31.960Z,9.20
2018-04-26T22:52:07.800Z,9.30
2018-04-26T22:54:44.920Z,9.30
2018-04-26T22:57:20.121Z,9.40
2018-04-26T22:59:55.642Z,9.40
2018-04-26T23:02:23.597Z,9.50
2018-04-26T23:04:51.737Z,9.50
2018-04-26T23:07:20.217Z,9.50
2018-04-26T23:09:48.757Z,9.60
2018-04-26T23:12:16.557Z,9.60
2018-04-26T23:14:44.559Z,9.60
2018-04-26T23:17:13.535Z,9.60
2018-04-26T23:19:41.654Z,9.60
2018-04-26T23:22:09.794Z,9.70
2018-04-26T23:24:37.697Z,9.70
2018-04-26T23:27:05.920Z,9.70
2018-04-26T23:29:33.974Z,9.70
2018-04-26T23:32:02.674Z,9.60
2018-04-26T23:34:30.614Z,9.60
2018-04-26T23:36:58.554Z,9.60
2018-04-26T23:39:26.654Z,9.60
2018-04-26T23:41:55.393Z,9.60
2018-04-26T23:44:23.274Z,9.60
2018-04-26T23:46:51.174Z,9.60
2018-04-26T23:49:19.114Z,9.60
2018-04-26T23:51:47.014Z,9.60
2018-04-26T23:54:14.996Z,9.60
2018-04-26T23:56:42.954Z,9.50
2018-04-26T23:59:11.015Z,9.40
